This is the latest recevied weather packets stored in our database for station/object N4NVD-13. If no packets are shown the sender has not sent any weather packets the latest 10 day(s).
| Time | Temp. | Humidity | Pressure | Rain* | Wind** | Luminosity | Snow |
|---|---|---|---|---|---|---|---|
| 1777847627 | 25.56° C | 45% | 1017.2 hPa | 0 mm | - | 289 W/m² | - |
| 1777847322 | 25.56° C | 44% | 1017.3 hPa | 0 mm | - | 172 W/m² | - |
| 1777847021 | 25.56° C | 45% | 1017.2 hPa | 0 mm | - | 186 W/m² | - |
| 1777846719 | 26.11° C | 43% | 1017.2 hPa | 0 mm | - | 377 W/m² | - |
| 1777846417 | 25.56° C | 44% | 1017.4 hPa | 0 mm | - | 290 W/m² | - |
| 1777846113 | 26.11° C | 43% | 1017.4 hPa | 0 mm | - | 355 W/m² | - |
| 1777845810 | 26.67° C | 45% | 1017.4 hPa | 0 mm | - | 245 W/m² | - |
| 1777845507 | 26.67° C | 43% | 1017.5 hPa | 0 mm | - | 427 W/m² | - |
| 1777845204 | 27.22° C | 41% | 1017.5 hPa | 0 mm | - | 553 W/m² | - |
| 1777844902 | 27.22° C | 41% | 1017.9 hPa | 0 mm | - | 543 W/m² | - |
| 1777844599 | 26.11° C | 42% | 1017.7 hPa | 0 mm | - | 570 W/m² | - |
| 1777844296 | 26.11° C | 42% | 1017.8 hPa | 0 mm | - | 414 W/m² | - |
| 1777843993 | 26.11° C | 41% | 1018.2 hPa | 0 mm | - | 354 W/m² | - |
| 1777843690 | 26.11° C | 42% | 1017.9 hPa | 0 mm | - | 510 W/m² | - |
| 1777843387 | 27.22° C | 39% | 1018.1 hPa | 0 mm | - | 117 W/m² | - |
| 1777843080 | 26.67° C | 43% | 1018 hPa | 0 mm | - | 318 W/m² | - |
| 1777842776 | 26.67° C | 43% | 1018.1 hPa | 0 mm | - | 322 W/m² | - |
| 1777842476 | 26.67° C | 42% | 1018.2 hPa | 0 mm | - | 330 W/m² | - |
| 1777842174 | 26.11° C | 43% | 1018.3 hPa | 0 mm | - | 489 W/m² | - |
| 1777841869 | 25.56° C | 43% | 1018.5 hPa | 0 mm | - | 206 W/m² | - |
| 1777841565 | 26.11° C | 44% | 1018.5 hPa | 0 mm | - | 565 W/m² | - |
| 1777841262 | 26.67° C | 41% | 1018.9 hPa | 0 mm | - | 344 W/m² | - |
| 1777840960 | 26.67° C | 44% | 1018.6 hPa | 0 mm | - | 641 W/m² | - |
| 1777840657 | 26.11° C | 44% | 1018.9 hPa | 0 mm | - | 714 W/m² | - |
| 1777840354 | 27.22° C | 43% | 1018.8 hPa | 0 mm | - | 773 W/m² | - |
* Rain latest hour (hover to see other rain measurements)
** Current wind speed in m/s (hover to see current wind gust speed)